Time;durP1;ratioP1;P1;durP2;ratioP2;P2;SDS_P1;SDS_P2;PMS_P1;PMS_P2;Temp;Humidity;BMP_temperature;BMP_pressure;BME280_temperature;BME280_humidity;BME280_pressure;Samples;Min_cycle;Max_cycle;Signal;HPM_P1;HPM_P2
2023/07/08 00:01:31;;;;;;;10.32;6.32;;;;;;;;;;5036104;28;20017;-70
2023/07/08 00:04:16;;;;;;;10.45;6.13;;;;;;;;;;5047901;28;20135;-72
2023/07/08 00:07:02;;;;;;;12.30;6.78;;;;;;;;;;5044051;28;20112;-71
2023/07/08 00:09:47;;;;;;;10.63;5.63;;;;;;;;;;5039835;28;20075;-71
2023/07/08 00:12:32;;;;;;;11.07;6.15;;;;;;;;;;5047459;28;20048;-72
2023/07/08 00:15:18;;;;;;;11.80;6.97;;;;;;;;;;5047815;28;20426;-73
2023/07/08 00:18:10;;;;;;;10.43;6.35;;;;;;;;;;5049250;28;20472;-69
2023/07/08 00:20:56;;;;;;;9.20;6.03;;;;;;;;;;5047596;28;20031;-67
2023/07/08 00:23:45;;;;;;;11.13;5.57;;;;;;;;;;5034459;28;20082;-70
2023/07/08 00:26:31;;;;;;;12.43;5.75;;;;;;;;;;5042488;28;20033;-68
2023/07/08 00:29:16;;;;;;;12.77;6.40;;;;;;;;;;5046486;28;20029;-68
2023/07/08 00:32:01;;;;;;;12.07;6.53;;;;;;;;;;5042328;28;20037;-68
2023/07/08 00:34:47;;;;;;;10.27;5.78;;;;;;;;;;5035680;28;20016;-79
2023/07/08 00:37:32;;;;;;;11.82;5.47;;;;;;;;;;5046761;28;20039;-74
2023/07/08 00:40:19;;;;;;;12.05;6.07;;;;;;;;;;5047688;28;20032;-73
2023/07/08 00:43:05;;;;;;;10.07;5.97;;;;;;;;;;5042139;28;20561;-73
2023/07/08 00:45:53;;;;;;;9.80;5.50;;;;;;;;;;5045607;28;20040;-75
2023/07/08 00:48:39;;;;;;;12.18;7.00;;;;;;;;;;5045054;28;20033;-72
2023/07/08 00:51:24;;;;;;;12.00;6.82;;;;;;;;;;5045541;28;20052;-68
2023/07/08 00:54:14;;;;;;;10.80;6.60;;;;;;;;;;5060182;28;20028;-72
2023/07/08 00:57:01;;;;;;;10.30;5.75;;;;;;;;;;5059553;28;20387;-73
2023/07/08 00:59:54;;;;;;;10.73;5.82;;;;;;;;;;5049563;28;20017;-73
2023/07/08 01:02:44;;;;;;;13.40;6.38;;;;;;;;;;5036562;28;20117;-72
2023/07/08 01:05:30;;;;;;;10.50;6.28;;;;;;;;;;5047361;28;20017;-72
2023/07/08 01:08:16;;;;;;;13.88;7.05;;;;;;;;;;5047040;28;20043;-72
2023/07/08 01:11:03;;;;;;;8.82;5.28;;;;;;;;;;5015463;28;20545;-78
2023/07/08 01:13:50;;;;;;;12.55;5.85;;;;;;;;;;5044970;28;20025;-75
2023/07/08 01:16:35;;;;;;;10.90;6.63;;;;;;;;;;5054761;28;20051;-73
2023/07/08 01:19:32;;;;;;;11.43;6.18;;;;;;;;;;5023997;28;20025;-74
2023/07/08 01:22:17;;;;;;;10.40;5.60;;;;;;;;;;5048141;28;20025;-73
2023/07/08 01:25:04;;;;;;;9.10;5.80;;;;;;;;;;5026454;28;20021;-73
2023/07/08 01:27:51;;;;;;;10.05;5.80;;;;;;;;;;5047979;28;20502;-69
2023/07/08 01:30:37;;;;;;;13.18;6.70;;;;;;;;;;5050482;28;20060;-72
2023/07/08 01:33:24;;;;;;;13.35;6.47;;;;;;;;;;5050349;28;20435;-76
2023/07/08 01:36:12;;;;;;;10.35;6.22;;;;;;;;;;5050090;28;20044;-76
2023/07/08 01:38:57;;;;;;;9.82;6.43;;;;;;;;;;5046535;28;20079;-75
2023/07/08 01:41:43;;;;;;;10.18;6.13;;;;;;;;;;5035493;28;20373;-77
2023/07/08 01:44:30;;;;;;;10.05;5.82;;;;;;;;;;5048281;28;20051;-77
2023/07/08 01:47:17;;;;;;;10.57;6.22;;;;;;;;;;5046848;28;20045;-77
2023/07/08 01:50:03;;;;;;;11.00;6.07;;;;;;;;;;5039759;28;20095;-73
2023/07/08 01:52:49;;;;;;;10.48;6.10;;;;;;;;;;5049049;28;20061;-72
2023/07/08 01:55:35;;;;;;;11.27;6.35;;;;;;;;;;5060753;28;20017;-73
2023/07/08 01:58:20;;;;;;;11.50;6.53;;;;;;;;;;5049665;28;20036;-74
2023/07/08 02:01:05;;;;;;;11.73;6.95;;;;;;;;;;5037783;28;20040;-74
2023/07/08 02:03:50;;;;;;;8.35;5.22;;;;;;;;;;5034468;28;20095;-75
2023/07/08 02:06:35;;;;;;;10.10;5.88;;;;;;;;;;5029774;28;20013;-71
2023/07/08 02:09:21;;;;;;;12.45;6.35;;;;;;;;;;5038492;28;20369;-70
2023/07/08 02:12:06;;;;;;;9.82;5.95;;;;;;;;;;5048801;28;20033;-70
2023/07/08 02:14:52;;;;;;;8.75;6.03;;;;;;;;;;5031346;28;20036;-71
2023/07/08 02:17:37;;;;;;;10.88;6.45;;;;;;;;;;5043063;28;20037;-70
2023/07/08 02:20:22;;;;;;;11.43;5.65;;;;;;;;;;5040960;28;20021;-71
2023/07/08 02:23:08;;;;;;;15.00;7.50;;;;;;;;;;5034563;28;20032;-73
2023/07/08 02:25:54;;;;;;;11.85;6.88;;;;;;;;;;5048395;28;20681;-76
2023/07/08 02:28:39;;;;;;;11.88;6.50;;;;;;;;;;5051134;28;20021;-73
2023/07/08 02:31:24;;;;;;;12.13;6.57;;;;;;;;;;5036756;28;20044;-75
2023/07/08 02:34:10;;;;;;;13.15;6.90;;;;;;;;;;5054504;28;20087;-73
2023/07/08 02:36:56;;;;;;;9.93;6.32;;;;;;;;;;5048220;28;20031;-73
2023/07/08 02:39:41;;;;;;;9.93;6.20;;;;;;;;;;5039331;28;20021;-73
2023/07/08 02:42:26;;;;;;;10.88;5.95;;;;;;;;;;5037937;28;20029;-68
2023/07/08 02:45:12;;;;;;;12.30;6.53;;;;;;;;;;5048732;28;20032;-69
2023/07/08 02:47:57;;;;;;;13.13;6.93;;;;;;;;;;5046584;28;20052;-67
2023/07/08 02:50:42;;;;;;;10.40;5.50;;;;;;;;;;5048461;28;20264;-68
2023/07/08 02:53:28;;;;;;;9.77;6.60;;;;;;;;;;5048462;28;20095;-68
2023/07/08 02:56:13;;;;;;;9.35;5.70;;;;;;;;;;5054498;28;20040;-68
2023/07/08 02:58:58;;;;;;;10.80;6.15;;;;;;;;;;5051087;28;20120;-68
2023/07/08 03:01:46;;;;;;;11.43;6.03;;;;;;;;;;5048735;28;20075;-67
2023/07/08 03:04:32;;;;;;;9.70;5.65;;;;;;;;;;5047774;28;20040;-70
2023/07/08 03:07:17;;;;;;;10.43;6.25;;;;;;;;;;5047734;28;20071;-70
2023/07/08 03:10:03;;;;;;;11.90;6.07;;;;;;;;;;5047984;28;20028;-71
2023/07/08 03:12:48;;;;;;;11.70;5.95;;;;;;;;;;5037999;28;20168;-71
2023/07/08 03:15:33;;;;;;;11.18;6.30;;;;;;;;;;5048644;28;20153;-71
2023/07/08 03:18:21;;;;;;;10.48;6.95;;;;;;;;;;5059882;28;20037;-70
2023/07/08 03:21:07;;;;;;;11.07;6.70;;;;;;;;;;5047756;28;20058;-72
2023/07/08 03:23:52;;;;;;;11.02;6.10;;;;;;;;;;5043549;28;20020;-72
2023/07/08 03:26:38;;;;;;;13.75;6.75;;;;;;;;;;5029836;28;20029;-72
2023/07/08 03:29:23;;;;;;;11.80;5.70;;;;;;;;;;5050782;28;20037;-73
2023/07/08 03:32:10;;;;;;;11.93;5.80;;;;;;;;;;5045147;28;20396;-72
2023/07/08 03:34:55;;;;;;;12.77;6.10;;;;;;;;;;5045146;28;20059;-74
2023/07/08 03:37:41;;;;;;;9.65;5.82;;;;;;;;;;5047126;28;20103;-68
2023/07/08 03:40:26;;;;;;;9.73;6.38;;;;;;;;;;5047803;28;20035;-74
2023/07/08 03:43:11;;;;;;;10.60;6.35;;;;;;;;;;5037441;28;20464;-73
2023/07/08 03:45:56;;;;;;;12.45;6.50;;;;;;;;;;5047383;28;20052;-73
2023/07/08 03:48:41;;;;;;;10.80;6.07;;;;;;;;;;5042442;28;20667;-73
2023/07/08 03:51:28;;;;;;;10.57;5.82;;;;;;;;;;5039501;28;20053;-76
2023/07/08 03:54:14;;;;;;;11.30;6.22;;;;;;;;;;5039413;28;20704;-75
2023/07/08 03:56:59;;;;;;;11.73;6.10;;;;;;;;;;5054658;28;20024;-71
2023/07/08 03:59:45;;;;;;;10.80;5.90;;;;;;;;;;5046547;23;20096;-66
2023/07/08 04:02:30;;;;;;;11.35;6.35;;;;;;;;;;5028169;28;20030;-64
2023/07/08 04:05:20;;;;;;;10.98;6.65;;;;;;;;;;5014454;28;20036;-65
2023/07/08 04:08:05;;;;;;;11.27;6.05;;;;;;;;;;5027710;28;20032;-67
2023/07/08 04:10:51;;;;;;;12.90;5.93;;;;;;;;;;5028083;28;20037;-66
2023/07/08 04:13:36;;;;;;;11.25;5.68;;;;;;;;;;5031010;28;20025;-69
2023/07/08 04:16:28;;;;;;;10.70;5.82;;;;;;;;;;5029470;28;20037;-68
2023/07/08 04:19:14;;;;;;;9.20;5.50;;;;;;;;;;5031788;28;20258;-68
2023/07/08 04:22:00;;;;;;;10.18;6.40;;;;;;;;;;5027719;28;20055;-67
2023/07/08 04:24:46;;;;;;;13.02;6.00;;;;;;;;;;5023888;28;20068;-67
2023/07/08 04:27:31;;;;;;;10.73;6.18;;;;;;;;;;5035697;28;20053;-66
2023/07/08 04:30:21;;;;;;;10.40;5.85;;;;;;;;;;5042257;28;20037;-68
2023/07/08 04:33:10;;;;;;;10.38;5.97;;;;;;;;;;5028071;28;20025;-68
2023/07/08 04:35:55;;;;;;;11.20;5.30;;;;;;;;;;5017934;28;20366;-68
2023/07/08 04:38:41;;;;;;;10.05;5.82;;;;;;;;;;5027730;28;20037;-68
2023/07/08 04:41:26;;;;;;;10.70;5.95;;;;;;;;;;5028249;28;20024;-67
2023/07/08 04:44:12;;;;;;;10.02;5.90;;;;;;;;;;5037762;28;20045;-69
2023/07/08 04:46:58;;;;;;;11.40;6.07;;;;;;;;;;5028325;28;20638;-69
2023/07/08 04:49:43;;;;;;;11.80;6.43;;;;;;;;;;5030308;28;20052;-69
2023/07/08 04:52:28;;;;;;;9.38;5.70;;;;;;;;;;5031617;28;20033;-69
2023/07/08 04:55:14;;;;;;;9.55;6.03;;;;;;;;;;5039201;28;20040;-68
2023/07/08 04:57:59;;;;;;;9.13;5.82;;;;;;;;;;5051229;28;20013;-66
2023/07/08 05:00:44;;;;;;;8.57;5.43;;;;;;;;;;5049518;28;20103;-67
2023/07/08 05:03:29;;;;;;;13.80;6.03;;;;;;;;;;5051312;28;20029;-68
2023/07/08 05:06:15;;;;;;;13.05;6.25;;;;;;;;;;5038875;28;20033;-68
2023/07/08 05:09:01;;;;;;;10.68;6.38;;;;;;;;;;5037139;28;20188;-68
2023/07/08 05:11:46;;;;;;;11.23;7.05;;;;;;;;;;5064975;28;20048;-65
2023/07/08 05:14:31;;;;;;;11.25;6.63;;;;;;;;;;5051147;28;20025;-65
2023/07/08 05:17:16;;;;;;;12.35;6.22;;;;;;;;;;5060871;28;20509;-68
2023/07/08 05:20:03;;;;;;;11.00;6.53;;;;;;;;;;5051167;28;20061;-66
2023/07/08 05:22:48;;;;;;;11.55;6.28;;;;;;;;;;5064638;28;20056;-65
2023/07/08 05:25:33;;;;;;;9.77;6.38;;;;;;;;;;5050953;28;20357;-64
2023/07/08 05:28:19;;;;;;;10.50;6.05;;;;;;;;;;5061738;28;20029;-69
2023/07/08 05:31:04;;;;;;;10.65;6.18;;;;;;;;;;5050941;28;20040;-67
2023/07/08 05:33:50;;;;;;;10.60;6.07;;;;;;;;;;5053540;28;20412;-67
2023/07/08 05:36:35;;;;;;;13.38;7.13;;;;;;;;;;5046061;28;20174;-71
2023/07/08 05:39:21;;;;;;;9.48;6.15;;;;;;;;;;5050466;28;20043;-69
2023/07/08 05:42:06;;;;;;;12.23;6.57;;;;;;;;;;5050345;28;20364;-69
2023/07/08 05:44:51;;;;;;;10.65;6.10;;;;;;;;;;5050467;28;20052;-70
2023/07/08 05:47:37;;;;;;;10.35;6.22;;;;;;;;;;5038505;28;20104;-69
2023/07/08 05:50:22;;;;;;;9.95;6.38;;;;;;;;;;5050130;28;20128;-66
2023/07/08 05:53:10;;;;;;;11.18;6.47;;;;;;;;;;5050527;28;20398;-66
2023/07/08 05:55:56;;;;;;;12.25;6.18;;;;;;;;;;5057990;28;20048;-66
2023/07/08 05:58:41;;;;;;;8.90;5.45;;;;;;;;;;5051943;28;20508;-65
2023/07/08 06:01:26;;;;;;;11.73;6.18;;;;;;;;;;5039896;28;20037;-65
2023/07/08 06:04:12;;;;;;;10.15;5.82;;;;;;;;;;5050223;28;20056;-65
2023/07/08 06:06:57;;;;;;;11.63;6.55;;;;;;;;;;5050506;28;20021;-68
2023/07/08 06:09:43;;;;;;;9.38;6.07;;;;;;;;;;5050362;28;20036;-67
2023/07/08 06:12:30;;;;;;;8.80;5.75;;;;;;;;;;5049983;28;20033;-68
2023/07/08 06:15:15;;;;;;;12.30;6.78;;;;;;;;;;5041968;28;20472;-66
2023/07/08 06:18:02;;;;;;;9.20;6.07;;;;;;;;;;5060045;28;20113;-67
2023/07/08 06:20:54;;;;;;;11.40;6.47;;;;;;;;;;5050224;28;20029;-67
2023/07/08 06:23:39;;;;;;;10.02;6.00;;;;;;;;;;5049303;28;20036;-68
2023/07/08 06:26:24;;;;;;;10.35;6.13;;;;;;;;;;5049159;28;20033;-69
2023/07/08 06:29:10;;;;;;;10.80;5.88;;;;;;;;;;5058930;28;20078;-68
2023/07/08 06:31:55;;;;;;;10.02;6.32;;;;;;;;;;5049161;28;20021;-68
2023/07/08 06:34:40;;;;;;;12.68;7.00;;;;;;;;;;5049836;28;20021;-67
2023/07/08 06:37:25;;;;;;;11.57;6.07;;;;;;;;;;5037966;28;20166;-68
2023/07/08 06:40:11;;;;;;;10.32;5.63;;;;;;;;;;5035543;28;20116;-66
2023/07/08 06:42:56;;;;;;;10.73;5.85;;;;;;;;;;5040809;28;20504;-67
2023/07/08 06:45:42;;;;;;;11.40;6.70;;;;;;;;;;5049167;28;20040;-71
2023/07/08 06:48:27;;;;;;;9.30;6.35;;;;;;;;;;5049337;28;20375;-67
2023/07/08 06:51:13;;;;;;;12.02;6.53;;;;;;;;;;5048975;28;20044;-69
2023/07/08 06:53:58;;;;;;;10.63;5.97;;;;;;;;;;5049127;28;20013;-68
2023/07/08 06:56:43;;;;;;;11.13;5.78;;;;;;;;;;5057194;28;20033;-68
2023/07/08 06:59:29;;;;;;;9.60;5.80;;;;;;;;;;5036456;28;20041;-70
2023/07/08 07:02:14;;;;;;;9.63;5.40;;;;;;;;;;5048955;28;20195;-66
2023/07/08 07:04:59;;;;;;;9.82;4.85;;;;;;;;;;5049262;28;20181;-65
2023/07/08 07:07:44;;;;;;;7.28;4.50;;;;;;;;;;5048914;28;20458;-67
2023/07/08 07:10:29;;;;;;;8.93;4.68;;;;;;;;;;5048696;28;20033;-66
2023/07/08 07:13:15;;;;;;;8.43;4.47;;;;;;;;;;5048323;28;20407;-66
2023/07/08 07:16:00;;;;;;;7.72;4.65;;;;;;;;;;5048722;28;20024;-66
2023/07/08 07:18:45;;;;;;;7.05;4.68;;;;;;;;;;5056527;28;20035;-67
2023/07/08 07:21:30;;;;;;;6.75;4.13;;;;;;;;;;5048466;28;20181;-66
2023/07/08 07:24:16;;;;;;;9.00;4.18;;;;;;;;;;5048095;28;20028;-67
2023/07/08 07:27:01;;;;;;;9.70;5.15;;;;;;;;;;5052167;28;20035;-67
2023/07/08 07:29:47;;;;;;;7.97;4.40;;;;;;;;;;5055000;28;20021;-66
2023/07/08 07:32:33;;;;;;;10.00;4.72;;;;;;;;;;5062245;28;20041;-68
2023/07/08 07:35:19;;;;;;;10.05;4.57;;;;;;;;;;5061860;28;20028;-70
2023/07/08 07:38:04;;;;;;;10.82;4.97;;;;;;;;;;5047907;28;20036;-66
2023/07/08 07:40:51;;;;;;;8.90;4.57;;;;;;;;;;5039492;28;20380;-68
2023/07/08 07:43:37;;;;;;;7.95;4.50;;;;;;;;;;5061960;28;20032;-69
2023/07/08 07:46:22;;;;;;;8.30;4.43;;;;;;;;;;5043656;28;20112;-66
2023/07/08 07:49:07;;;;;;;10.48;4.00;;;;;;;;;;5048492;28;20227;-68
2023/07/08 07:51:52;;;;;;;8.85;4.05;;;;;;;;;;5047774;28;20432;-68
2023/07/08 07:54:38;;;;;;;8.13;4.20;;;;;;;;;;5050398;28;20021;-67
2023/07/08 07:57:24;;;;;;;7.75;4.32;;;;;;;;;;5050159;28;20053;-69
2023/07/08 08:00:09;;;;;;;10.55;4.05;;;;;;;;;;5047467;28;20045;-69
2023/07/08 08:02:55;;;;;;;13.52;4.45;;;;;;;;;;5036330;28;20036;-69
2023/07/08 08:05:40;;;;;;;8.23;3.92;;;;;;;;;;5047744;28;20078;-68
2023/07/08 08:08:25;;;;;;;8.35;4.00;;;;;;;;;;5048149;28;20386;-68
2023/07/08 08:11:11;;;;;;;7.60;3.88;;;;;;;;;;5047933;28;20039;-68
2023/07/08 08:13:56;;;;;;;6.03;3.42;;;;;;;;;;5048202;28;20055;-68
2023/07/08 08:16:41;;;;;;;5.80;3.17;;;;;;;;;;5053067;28;20129;-69
2023/07/08 08:19:27;;;;;;;6.47;3.30;;;;;;;;;;5050110;28;20082;-68
2023/07/08 08:22:12;;;;;;;7.97;3.30;;;;;;;;;;5040519;28;20123;-69
2023/07/08 08:24:57;;;;;;;8.57;4.47;;;;;;;;;;5051742;28;20029;-69
2023/07/08 08:27:43;;;;;;;6.50;3.47;;;;;;;;;;5061193;28;20021;-68
2023/07/08 08:30:29;;;;;;;7.07;3.35;;;;;;;;;;5038578;28;20029;-69
2023/07/08 08:33:14;;;;;;;8.88;3.90;;;;;;;;;;5051680;28;20033;-67
2023/07/08 08:35:59;;;;;;;8.18;3.75;;;;;;;;;;5051316;28;20025;-70
2023/07/08 08:38:44;;;;;;;6.47;3.67;;;;;;;;;;5049844;28;20036;-71
2023/07/08 08:41:31;;;;;;;4.88;3.17;;;;;;;;;;5049959;28;20037;-70
2023/07/08 08:44:17;;;;;;;6.63;3.35;;;;;;;;;;5040267;28;20356;-70
2023/07/08 08:47:06;;;;;;;5.60;3.33;;;;;;;;;;5050944;28;20119;-73
2023/07/08 08:49:56;;;;;;;5.97;3.30;;;;;;;;;;5051234;28;20037;-69
2023/07/08 08:52:42;;;;;;;6.68;3.80;;;;;;;;;;5065375;28;20036;-71
2023/07/08 08:55:28;;;;;;;6.80;3.35;;;;;;;;;;5056974;28;20570;-71
2023/07/08 08:58:13;;;;;;;5.70;2.95;;;;;;;;;;5052789;28;20086;-71
2023/07/08 09:01:09;;;;;;;8.23;3.88;;;;;;;;;;5051269;28;20186;-70
2023/07/08 09:04:04;;;;;;;4.80;3.15;;;;;;;;;;5051680;28;20037;-71
2023/07/08 09:06:50;;;;;;;8.35;4.07;;;;;;;;;;5062565;28;20090;-70
2023/07/08 09:09:47;;;;;;;5.90;3.20;;;;;;;;;;5051158;28;20607;-66
2023/07/08 09:12:33;;;;;;;5.07;2.58;;;;;;;;;;5064587;28;20539;-66
2023/07/08 09:15:19;;;;;;;3.75;2.20;;;;;;;;;;5064137;28;20685;-67
2023/07/08 09:18:14;;;;;;;5.22;2.60;;;;;;;;;;5054684;28;20033;-67
2023/07/08 09:21:01;;;;;;;6.38;2.38;;;;;;;;;;5061764;28;20653;-66
2023/07/08 09:23:48;;;;;;;4.32;2.20;;;;;;;;;;5047887;28;20486;-66
2023/07/08 09:26:33;;;;;;;3.90;2.10;;;;;;;;;;5048535;28;20051;-68
2023/07/08 09:29:18;;;;;;;3.83;2.00;;;;;;;;;;5059610;28;20068;-66
2023/07/08 09:32:16;;;;;;;8.85;2.70;;;;;;;;;;5050580;28;20037;-66
2023/07/08 09:35:04;;;;;;;5.00;2.63;;;;;;;;;;5050103;28;20065;-67
2023/07/08 09:37:49;;;;;;;13.90;2.58;;;;;;;;;;5059588;28;20029;-65
2023/07/08 09:40:35;;;;;;;3.63;2.47;;;;;;;;;;5050719;28;20025;-68
2023/07/08 09:43:24;;;;;;;5.57;2.67;;;;;;;;;;5050774;28;20045;-65
2023/07/08 09:46:12;;;;;;;4.57;2.60;;;;;;;;;;5053804;28;20490;-68
2023/07/08 09:48:57;;;;;;;6.53;2.97;;;;;;;;;;5050333;28;20116;-69
2023/07/08 09:51:42;;;;;;;5.38;2.65;;;;;;;;;;5050432;28;20041;-72
2023/07/08 09:54:27;;;;;;;5.88;2.63;;;;;;;;;;5040601;28;20143;-70
2023/07/08 09:57:13;;;;;;;5.97;3.30;;;;;;;;;;5055456;28;20017;-70
2023/07/08 09:59:59;;;;;;;7.30;3.00;;;;;;;;;;5050861;28;20045;-69
2023/07/08 10:02:46;;;;;;;4.88;2.65;;;;;;;;;;5049077;28;20033;-65
2023/07/08 10:05:36;;;;;;;3.67;2.28;;;;;;;;;;5064355;28;20399;-68
2023/07/08 10:08:22;;;;;;;5.53;3.30;;;;;;;;;;5050538;28;20021;-67
2023/07/08 10:11:22;;;;;;;9.73;3.60;;;;;;;;;;5050309;28;20031;-65
2023/07/08 10:14:23;;;;;;;5.28;3.10;;;;;;;;;;5050161;28;20033;-67
2023/07/08 10:17:18;;;;;;;9.52;2.97;;;;;;;;;;5055397;28;20104;-65
2023/07/08 10:20:07;;;;;;;7.30;3.17;;;;;;;;;;5039347;28;20029;-65
2023/07/08 10:23:07;;;;;;;6.75;3.00;;;;;;;;;;5063167;28;20025;-69
2023/07/08 10:26:06;;;;;;;5.75;3.22;;;;;;;;;;5063590;28;20064;-66
2023/07/08 10:28:51;;;;;;;;;;;;;;;;;;5060152;28;20547;-67
2023/07/08 10:31:41;;;;;;;6.50;3.72;;;;;;;;;;5049271;28;19913;-64
2023/07/08 10:34:36;;;;;;;6.45;3.92;;;;;;;;;;5063673;28;20027;-66
2023/07/08 10:37:21;;;;;;;6.82;3.97;;;;;;;;;;5049562;28;20090;-65
2023/07/08 10:40:33;;;;;;;7.82;3.15;;;;;;;;;;5049590;28;20104;-65
2023/07/08 10:43:24;;;;;;;7.95;3.50;;;;;;;;;;5034588;28;20114;-66
2023/07/08 10:46:16;;;;;;;7.63;4.20;;;;;;;;;;5052942;28;20392;-65
2023/07/08 10:49:22;;;;;;;5.78;3.28;;;;;;;;;;5049410;28;20064;-69
2023/07/08 10:52:07;;;;;;;6.13;3.22;;;;;;;;;;5049125;28;20032;-66
2023/07/08 10:55:13;;;;;;;6.57;2.95;;;;;;;;;;5054669;28;20028;-65
2023/07/08 10:58:13;;;;;;;4.65;2.88;;;;;;;;;;5047966;28;20029;-66
2023/07/08 11:01:11;;;;;;;6.32;2.70;;;;;;;;;;5048982;28;20044;-65
2023/07/08 11:04:00;;;;;;;5.53;2.77;;;;;;;;;;5057063;28;20216;-67
2023/07/08 11:06:47;;;;;;;7.32;3.30;;;;;;;;;;5046326;28;20135;-67
2023/07/08 11:09:39;;;;;;;5.50;2.58;;;;;;;;;;5033024;28;20021;-68
2023/07/08 11:12:36;;;;;;;6.53;2.95;;;;;;;;;;5046000;28;20033;-66
2023/07/08 11:15:25;;;;;;;5.68;2.40;;;;;;;;;;5046275;28;20035;-68
2023/07/08 11:18:10;;;;;;;;;;;;;;;;;;5055638;28;20035;-65
2023/07/08 11:21:06;;;;;;;4.47;2.70;;;;;;;;;;5049019;28;20417;-69
2023/07/08 11:23:56;;;;;;;6.88;4.00;;;;;;;;;;5046863;28;20033;-69
2023/07/08 11:26:45;;;;;;;6.82;2.90;;;;;;;;;;5049212;28;20105;-67
2023/07/08 11:29:39;;;;;;;8.30;3.30;;;;;;;;;;5055984;28;20036;-69
2023/07/08 11:32:26;;;;;;;7.57;3.25;;;;;;;;;;5052355;28;20132;-70
2023/07/08 11:35:21;;;;;;;6.68;2.90;;;;;;;;;;5048667;28;20052;-72
2023/07/08 11:38:10;;;;;;;13.05;3.13;;;;;;;;;;5048563;28;20067;-69
2023/07/08 11:40:55;;;;;;;3.88;2.72;;;;;;;;;;5049328;28;20483;-70
2023/07/08 11:43:40;;;;;;;6.15;3.72;;;;;;;;;;5048681;28;20032;-68
2023/07/08 11:46:31;;;;;;;4.82;3.00;;;;;;;;;;5041755;28;20029;-71
2023/07/08 11:49:17;;;;;;;7.60;2.83;;;;;;;;;;5036634;28;20017;-71
2023/07/08 11:52:03;;;;;;;6.57;2.33;;;;;;;;;;5062408;28;20123;-70
2023/07/08 11:54:54;;;;;;;7.93;2.92;;;;;;;;;;5066756;28;20466;-68
2023/07/08 11:57:42;;;;;;;6.60;3.00;;;;;;;;;;5040268;28;20577;-64
2023/07/08 12:00:32;;;;;;;7.50;2.58;;;;;;;;;;5061694;28;20507;-65
2023/07/08 12:03:21;;;;;;;5.10;2.85;;;;;;;;;;5048382;28;20091;-65
2023/07/08 12:06:25;;;;;;;4.97;2.80;;;;;;;;;;5048401;28;20117;-64
2023/07/08 12:09:33;;;;;;;9.38;3.53;;;;;;;;;;5048175;28;20100;-64
2023/07/08 12:12:29;;;;;;;6.28;2.88;;;;;;;;;;5047705;28;20045;-70
2023/07/08 12:15:22;;;;;;;6.25;3.65;;;;;;;;;;5047814;28;20063;-71
2023/07/08 12:18:20;;;;;;;5.07;3.08;;;;;;;;;;5048757;28;20039;-69
2023/07/08 12:21:07;;;;;;;4.88;2.67;;;;;;;;;;5048403;28;20114;-69
2023/07/08 12:23:53;;;;;;;4.20;2.42;;;;;;;;;;5047276;28;20124;-70
2023/07/08 12:26:39;;;;;;;5.47;2.47;;;;;;;;;;5048127;28;20029;-70
2023/07/08 12:29:24;;;;;;;5.30;2.72;;;;;;;;;;5049759;28;20041;-70
2023/07/08 12:32:12;;;;;;;7.20;2.80;;;;;;;;;;5044175;28;20037;-68
2023/07/08 12:34:57;;;;;;;4.72;2.95;;;;;;;;;;5047703;28;20036;-64
2023/07/08 12:37:42;;;;;;;7.43;2.80;;;;;;;;;;5047677;28;20369;-65
2023/07/08 12:40:28;;;;;;;4.88;2.50;;;;;;;;;;5047359;28;20032;-65
2023/07/08 12:43:15;;;;;;;5.05;2.67;;;;;;;;;;5047416;28;20048;-65
2023/07/08 12:46:00;;;;;;;6.47;3.05;;;;;;;;;;5061436;28;20054;-65
2023/07/08 12:48:46;;;;;;;7.13;3.65;;;;;;;;;;5047560;28;20027;-70
2023/07/08 12:51:31;;;;;;;5.82;2.80;;;;;;;;;;5047827;28;20025;-67
2023/07/08 12:54:16;;;;;;;4.05;2.45;;;;;;;;;;5047615;28;20040;-68
2023/07/08 12:57:02;;;;;;;6.38;2.70;;;;;;;;;;5044693;28;20031;-67
2023/07/08 12:59:47;;;;;;;7.13;2.80;;;;;;;;;;5047379;28;20048;-68
2023/07/08 13:02:33;;;;;;;4.80;2.45;;;;;;;;;;5047628;28;20035;-68
2023/07/08 13:05:18;;;;;;;5.75;3.22;;;;;;;;;;5047764;28;20027;-67
2023/07/08 13:08:04;;;;;;;5.63;2.55;;;;;;;;;;5047352;28;20025;-68
2023/07/08 13:10:51;;;;;;;5.20;2.70;;;;;;;;;;5063485;28;20028;-65
2023/07/08 13:13:40;;;;;;;4.97;2.22;;;;;;;;;;5064954;28;20045;-64
2023/07/08 13:16:28;;;;;;;5.68;2.70;;;;;;;;;;5067329;28;20486;-65
2023/07/08 13:19:14;;;;;;;5.25;2.10;;;;;;;;;;5052960;28;20037;-64
2023/07/08 13:21:59;;;;;;;3.67;2.25;;;;;;;;;;5065280;28;20114;-64
2023/07/08 13:24:45;;;;;;;3.13;1.95;;;;;;;;;;5046708;28;20071;-65
2023/07/08 13:27:30;;;;;;;5.22;2.10;;;;;;;;;;5068185;28;20526;-65
2023/07/08 13:30:20;;;;;;;4.20;2.10;;;;;;;;;;5050383;28;20432;-66
2023/07/08 13:33:15;;;;;;;5.32;2.15;;;;;;;;;;5050834;28;20430;-67
2023/07/08 13:36:04;;;;;;;4.82;2.70;;;;;;;;;;5051275;28;20033;-67
2023/07/08 13:38:50;;;;;;;7.68;2.40;;;;;;;;;;5050813;28;20021;-65
2023/07/08 13:41:36;;;;;;;4.57;2.20;;;;;;;;;;5064608;28;20098;-68
2023/07/08 13:44:21;;;;;;;5.47;2.33;;;;;;;;;;5048610;28;20029;-68
2023/07/08 13:47:18;;;;;;;3.85;1.85;;;;;;;;;;5050430;28;20086;-67
2023/07/08 13:50:18;;;;;;;4.57;2.22;;;;;;;;;;5045008;28;20021;-67
2023/07/08 13:53:14;;;;;;;4.63;2.15;;;;;;;;;;5050933;28;20041;-68
2023/07/08 13:56:01;;;;;;;4.65;2.08;;;;;;;;;;5052609;28;20057;-68
2023/07/08 13:58:51;;;;;;;4.82;2.13;;;;;;;;;;5052034;28;20625;-68
2023/07/08 14:01:40;;;;;;;4.72;2.10;;;;;;;;;;5064457;28;20115;-67
2023/07/08 14:04:30;;;;;;;5.35;2.20;;;;;;;;;;5047354;28;20028;-67
2023/07/08 14:07:20;;;;;;;3.83;2.70;;;;;;;;;;5050021;28;20412;-66
2023/07/08 14:10:12;;;;;;;4.50;2.75;;;;;;;;;;5041193;28;20570;-67
2023/07/08 14:12:57;;;;;;;5.55;2.28;;;;;;;;;;5050124;28;20036;-65
2023/07/08 14:15:42;;;;;;;7.25;2.53;;;;;;;;;;5049935;28;20044;-65
2023/07/08 14:18:27;;;;;;;5.47;2.25;;;;;;;;;;5059141;28;20380;-67
2023/07/08 14:21:13;;;;;;;4.05;2.20;;;;;;;;;;5049570;28;20025;-67
2023/07/08 14:23:58;;;;;;;6.03;2.17;;;;;;;;;;5048803;28;20032;-68
2023/07/08 14:26:44;;;;;;;4.32;2.13;;;;;;;;;;5048537;28;20029;-69
2023/07/08 14:29:29;;;;;;;5.50;2.80;;;;;;;;;;5037350;28;20115;-70
2023/07/08 14:32:16;;;;;;;4.93;2.38;;;;;;;;;;5048366;28;20073;-68
2023/07/08 14:35:15;;;;;;;5.80;2.30;;;;;;;;;;5049449;28;20472;-69
2023/07/08 14:38:00;;;;;;;;;;;;;;;;;;5049609;28;20124;-67
2023/07/08 14:40:45;;;;;;;4.97;2.10;;;;;;;;;;5036594;28;20268;-69
2023/07/08 14:43:32;;;;;;;4.68;2.42;;;;;;;;;;5048826;28;20492;-68
2023/07/08 14:46:17;;;;;;;3.95;2.45;;;;;;;;;;5049340;28;20396;-67
2023/07/08 14:49:08;;;;;;;3.22;1.98;;;;;;;;;;5049214;28;20041;-66
2023/07/08 14:51:54;;;;;;;6.15;2.35;;;;;;;;;;5049206;28;20080;-65
2023/07/08 14:54:39;;;;;;;3.92;2.10;;;;;;;;;;5052058;28;20459;-66
2023/07/08 14:57:27;;;;;;;2.80;2.10;;;;;;;;;;5052605;28;20036;-68
2023/07/08 15:00:14;;;;;;;5.35;2.40;;;;;;;;;;5033851;28;20052;-66
2023/07/08 15:02:59;;;;;;;7.07;2.80;;;;;;;;;;5049156;28;20056;-67
2023/07/08 15:05:44;;;;;;;4.10;2.03;;;;;;;;;;5048979;28;20029;-66
2023/07/08 15:08:31;;;;;;;5.68;2.50;;;;;;;;;;5048562;28;20028;-66
2023/07/08 15:11:17;;;;;;;5.43;2.53;;;;;;;;;;5035801;28;20099;-66
2023/07/08 15:14:03;;;;;;;5.25;2.78;;;;;;;;;;5062353;28;20510;-65
2023/07/08 15:16:51;;;;;;;5.65;3.38;;;;;;;;;;5040534;28;20029;-70
2023/07/08 15:19:37;;;;;;;3.70;2.38;;;;;;;;;;5049362;28;20048;-68
2023/07/08 15:22:22;;;;;;;4.78;2.05;;;;;;;;;;5062610;28;20091;-69
2023/07/08 15:25:09;;;;;;;6.93;2.65;;;;;;;;;;5046620;28;20132;-67
2023/07/08 15:27:55;;;;;;;4.55;1.92;;;;;;;;;;5056742;28;20479;-66
2023/07/08 15:30:41;;;;;;;3.65;2.03;;;;;;;;;;5034864;28;20040;-66
2023/07/08 15:33:26;;;;;;;6.10;2.20;;;;;;;;;;5045468;28;20036;-68
2023/07/08 15:36:12;;;;;;;3.55;2.08;;;;;;;;;;5047403;28;20380;-65
2023/07/08 15:38:57;;;;;;;4.25;1.95;;;;;;;;;;5035934;28;20414;-67
2023/07/08 15:41:43;;;;;;;4.97;2.38;;;;;;;;;;5048167;28;20078;-69
2023/07/08 15:44:28;;;;;;;6.35;2.53;;;;;;;;;;5047533;28;20492;-67
2023/07/08 15:47:13;;;;;;;4.35;2.00;;;;;;;;;;5047737;28;20025;-66
2023/07/08 15:49:59;;;;;;;3.67;1.95;;;;;;;;;;5062004;28;20024;-67
2023/07/08 15:52:44;;;;;;;5.40;2.20;;;;;;;;;;5047726;28;20076;-67
2023/07/08 15:55:32;;;;;;;3.70;2.10;;;;;;;;;;5055452;28;20037;-69
2023/07/08 15:58:28;;;;;;;3.08;2.08;;;;;;;;;;5050232;28;20029;-70
2023/07/08 16:01:20;;;;;;;4.15;2.90;;;;;;;;;;5037204;28;20473;-71
2023/07/08 16:04:05;;;;;;;3.83;2.38;;;;;;;;;;5048133;28;20379;-70
2023/07/08 16:06:50;;;;;;;3.92;2.05;;;;;;;;;;5048272;28;20116;-70
2023/07/08 16:09:35;;;;;;;3.67;2.25;;;;;;;;;;5048022;28;20029;-71
2023/07/08 16:12:21;;;;;;;4.07;2.03;;;;;;;;;;5047639;28;20043;-66
2023/07/08 16:15:14;;;;;;;4.30;2.25;;;;;;;;;;5048072;28;20094;-70
2023/07/08 16:18:00;;;;;;;6.90;4.00;;;;;;;;;;5071001;28;20164;-70
2023/07/08 16:20:45;;;;;;;6.25;3.22;;;;;;;;;;5046278;28;20120;-68
2023/07/08 16:23:31;;;;;;;5.35;2.83;;;;;;;;;;5061259;28;20671;-68
2023/07/08 16:26:16;;;;;;;4.82;2.72;;;;;;;;;;5045581;28;20025;-68
2023/07/08 16:29:02;;;;;;;3.60;2.00;;;;;;;;;;5057104;28;20086;-68
2023/07/08 16:31:47;;;;;;;4.85;2.33;;;;;;;;;;5047559;28;20116;-65
2023/07/08 16:34:32;;;;;;;4.82;2.03;;;;;;;;;;5061333;28;20029;-67
2023/07/08 16:37:17;;;;;;;4.55;2.38;;;;;;;;;;5034625;28;20025;-69